Time;durP1;ratioP1;P1;durP2;ratioP2;P2;SDS_P1;SDS_P2;PMS_P1;PMS_P2;Temp;Humidity;BMP_temperature;BMP_pressure;BME280_temperature;BME280_humidity;BME280_pressure;Samples;Min_cycle;Max_cycle;Signal;HPM_P1;HPM_P2
2021/08/05 00:01:49;;;;;;;5.00;4.03;;;15.20;99.90;;;;;;5105776;28;20442;-45
2021/08/05 00:04:14;;;;;;;4.83;4.33;;;15.20;99.90;;;;;;5081386;28;20712;-45
2021/08/05 00:06:40;;;;;;;6.00;5.50;;;15.20;99.90;;;;;;5098910;28;20437;-45
2021/08/05 00:09:06;;;;;;;5.73;5.13;;;15.20;99.90;;;;;;5099182;28;20518;-45
2021/08/05 00:11:32;;;;;;;5.57;5.07;;;15.20;99.90;;;;;;5118872;28;20776;-45
2021/08/05 00:13:58;;;;;;;4.87;4.47;;;15.20;99.90;;;;;;5119600;28;20418;-45
2021/08/05 00:16:24;;;;;;;6.30;5.37;;;15.20;99.90;;;;;;5119252;28;20229;-45
2021/08/05 00:18:50;;;;;;;5.87;4.60;;;15.20;99.90;;;;;;5106159;28;20466;-45
2021/08/05 00:21:19;;;;;;;6.00;5.40;;;15.10;99.90;;;;;;5098714;28;20454;-45
2021/08/05 00:23:46;;;;;;;5.17;4.70;;;15.10;99.90;;;;;;5098969;28;20561;-45
2021/08/05 00:26:12;;;;;;;5.30;4.83;;;15.10;99.90;;;;;;5098740;28;20773;-45
2021/08/05 00:28:38;;;;;;;5.10;4.60;;;15.10;99.90;;;;;;5105356;28;20441;-45
2021/08/05 00:31:05;;;;;;;4.83;4.30;;;15.10;99.90;;;;;;5118953;28;20512;-45
2021/08/05 00:33:31;;;;;;;5.40;4.50;;;15.00;99.90;;;;;;5118524;28;20811;-45
2021/08/05 00:35:57;;;;;;;5.87;5.27;;;15.00;99.90;;;;;;5119123;28;20466;-45
2021/08/05 00:38:23;;;;;;;6.87;5.93;;;15.00;99.90;;;;;;5098152;28;20977;-45
2021/08/05 00:40:49;;;;;;;6.23;5.63;;;15.00;99.90;;;;;;5119116;28;20429;-45
2021/08/05 00:43:15;;;;;;;5.50;5.00;;;15.00;99.90;;;;;;5118676;28;20206;-45
2021/08/05 00:45:40;;;;;;;6.90;5.10;;;15.00;99.90;;;;;;5119137;28;20178;-45
2021/08/05 00:48:06;;;;;;;5.37;4.90;;;14.90;99.90;;;;;;5108881;28;20434;-44
2021/08/05 00:50:34;;;;;;;5.70;5.17;;;14.90;99.90;;;;;;5098383;28;20180;-45
2021/08/05 00:53:01;;;;;;;6.10;5.37;;;14.90;99.90;;;;;;5098048;28;20172;-45
2021/08/05 00:55:27;;;;;;;5.37;4.87;;;14.90;99.90;;;;;;5110471;28;20696;-45
2021/08/05 00:57:53;;;;;;;5.73;4.93;;;14.90;99.90;;;;;;5118251;28;20424;-45
2021/08/05 01:00:19;;;;;;;5.40;4.90;;;14.90;99.90;;;;;;5118605;28;20568;-45
2021/08/05 01:02:49;;;;;;;5.97;5.37;;;14.90;99.90;;;;;;5110094;28;20446;-45
2021/08/05 01:05:16;;;;;;;6.03;5.43;;;14.90;99.90;;;;;;5087463;28;20430;-45
2021/08/05 01:07:51;;;;;;;6.70;5.57;;;14.80;99.90;;;;;;5083700;28;20448;-45
2021/08/05 01:10:23;;;;;;;6.90;6.20;;;14.80;99.90;;;;;;5106714;28;20473;-45
2021/08/05 01:13:19;;;;;;;8.30;6.00;;;14.80;99.90;;;;;;5087235;28;20505;-45
2021/08/05 01:15:45;;;;;;;7.23;6.50;;;14.80;99.90;;;;;;5092482;28;20433;-45
2021/08/05 01:18:14;;;;;;;9.00;5.40;;;14.80;99.90;;;;;;5100289;28;20510;-45
2021/08/05 01:20:42;;;;;;;7.07;5.67;;;14.80;99.90;;;;;;5095968;28;20472;-45
2021/08/05 01:23:30;;;;;;;8.83;5.83;;;14.80;99.90;;;;;;5098036;28;20513;-45
2021/08/05 01:26:26;;;;;;;6.60;6.00;;;14.80;99.90;;;;;;5080085;28;20437;-45
2021/08/05 01:28:51;;;;;;;9.47;6.57;;;14.80;99.90;;;;;;5098057;28;20513;-45
2021/08/05 01:31:21;;;;;;;6.87;6.27;;;14.80;99.90;;;;;;5099940;28;20520;-45
2021/08/05 01:33:47;;;;;;;6.87;5.97;;;14.80;99.90;;;;;;5115847;28;20561;-45
2021/08/05 01:36:13;;;;;;;6.37;5.47;;;14.80;99.90;;;;;;5099977;28;20424;-45
2021/08/05 01:38:40;;;;;;;6.20;5.50;;;14.80;99.90;;;;;;5116856;28;20890;-45
2021/08/05 01:41:07;;;;;;;6.23;5.63;;;14.80;99.90;;;;;;5098829;28;20437;-45
2021/08/05 01:43:34;;;;;;;7.60;5.37;;;14.90;99.90;;;;;;5092201;28;20425;-45
2021/08/05 01:46:00;;;;;;;6.67;5.87;;;14.90;99.90;;;;;;5066365;28;20517;-45
2021/08/05 01:48:26;;;;;;;6.40;5.80;;;14.90;99.90;;;;;;5118000;28;20804;-45
2021/08/05 01:50:52;;;;;;;5.90;5.30;;;14.90;99.90;;;;;;5103061;28;20448;-45
2021/08/05 01:53:17;;;;;;;7.00;6.33;;;14.80;99.90;;;;;;5080194;28;20180;-45
2021/08/05 01:55:45;;;;;;;6.33;5.73;;;14.90;99.90;;;;;;5079997;28;20422;-45
2021/08/05 01:58:11;;;;;;;6.47;5.37;;;14.90;99.90;;;;;;5079664;28;20789;-45
2021/08/05 02:00:37;;;;;;;5.90;5.23;;;14.90;99.90;;;;;;5106291;28;20694;-45
2021/08/05 02:03:04;;;;;;;6.00;5.40;;;14.90;99.90;;;;;;5088849;28;20441;-45
2021/08/05 02:05:49;;;;;;;6.30;5.10;;;14.90;99.90;;;;;;5097500;28;20452;-45
2021/08/05 02:08:18;;;;;;;5.53;5.03;;;14.80;99.90;;;;;;5097724;28;20824;-45
2021/08/05 02:10:46;;;;;;;6.00;5.40;;;14.80;99.90;;;;;;5079364;28;20429;-45
2021/08/05 02:13:23;;;;;;;5.70;5.20;;;14.90;99.90;;;;;;5093578;28;20429;-45
2021/08/05 02:15:52;;;;;;;6.53;5.97;;;14.80;99.90;;;;;;5093568;28;20472;-45
2021/08/05 02:18:20;;;;;;;7.57;6.80;;;14.80;99.90;;;;;;5081956;28;20538;-45
2021/08/05 02:20:47;;;;;;;6.80;6.10;;;14.80;99.90;;;;;;5101551;28;20504;-45
2021/08/05 02:23:16;;;;;;;11.10;6.67;;;14.90;99.90;;;;;;5101457;28;20482;-45
2021/08/05 02:25:43;;;;;;;6.70;6.10;;;14.80;99.90;;;;;;5101607;28;20513;-45
2021/08/05 02:28:09;;;;;;;6.50;5.50;;;14.80;99.90;;;;;;5083257;28;20430;-44
2021/08/05 02:30:36;;;;;;;6.23;5.63;;;14.80;99.90;;;;;;5101580;28;20419;-45
2021/08/05 02:33:03;;;;;;;7.63;5.77;;;14.80;99.90;;;;;;5091743;28;20436;-45
2021/08/05 02:35:29;;;;;;;6.70;6.00;;;14.80;99.90;;;;;;5092860;28;20799;-45
2021/08/05 02:37:55;;;;;;;6.50;5.53;;;14.80;99.90;;;;;;5082696;28;20423;-44
2021/08/05 02:40:20;;;;;;;6.37;5.70;;;14.70;99.90;;;;;;5101274;28;20924;-45
2021/08/05 02:42:46;;;;;;;8.00;6.30;;;14.80;99.90;;;;;;5082995;28;20423;-45
2021/08/05 02:45:13;;;;;;;8.57;6.13;;;14.80;99.90;;;;;;5086869;28;20207;-45
2021/08/05 02:47:39;;;;;;;7.03;6.10;;;14.80;99.90;;;;;;5103524;28;20437;-45
2021/08/05 02:50:06;;;;;;;9.10;5.83;;;14.80;99.90;;;;;;5121138;28;20413;-45
2021/08/05 02:52:32;;;;;;;7.03;5.60;;;14.80;99.90;;;;;;5121346;28;20421;-45
2021/08/05 02:54:58;;;;;;;6.57;5.60;;;14.80;99.90;;;;;;5088703;28;20426;-45
2021/08/05 02:57:24;;;;;;;6.90;6.20;;;14.80;99.90;;;;;;5082751;28;20546;-45
2021/08/05 02:59:50;;;;;;;7.67;6.87;;;14.80;99.90;;;;;;5100144;28;20543;-45
2021/08/05 03:02:17;;;;;;;7.00;6.30;;;14.80;99.90;;;;;;5086680;28;20441;-45
2021/08/05 03:04:43;;;;;;;7.27;5.63;;;14.70;99.90;;;;;;5114832;28;20228;-45
2021/08/05 03:07:10;;;;;;;6.73;5.93;;;14.70;99.90;;;;;;5120619;28;20509;-45
2021/08/05 03:09:36;;;;;;;7.73;6.73;;;14.70;99.90;;;;;;5103087;28;20188;-45
2021/08/05 03:12:01;;;;;;;7.60;6.90;;;14.70;99.90;;;;;;5104314;28;20463;-45
2021/08/05 03:14:27;;;;;;;9.40;8.47;;;14.70;99.90;;;;;;5100428;28;20181;-45
2021/08/05 03:16:53;;;;;;;8.70;7.77;;;14.70;99.90;;;;;;5099680;28;20177;-45
2021/08/05 03:19:19;;;;;;;7.93;7.23;;;14.70;99.90;;;;;;5100296;28;20495;-45
2021/08/05 03:21:44;;;;;;;8.33;7.30;;;14.60;99.90;;;;;;5110494;28;20433;-45
2021/08/05 03:24:10;;;;;;;7.73;6.93;;;14.50;99.90;;;;;;5119679;28;20236;-45
2021/08/05 03:26:36;;;;;;;8.70;7.77;;;14.50;99.90;;;;;;5082316;28;20242;-45
2021/08/05 03:29:01;;;;;;;8.43;7.60;;;14.50;99.90;;;;;;5099570;28;20720;-45
2021/08/05 03:31:27;;;;;;;7.87;7.17;;;14.50;99.90;;;;;;5118144;28;20187;-45
2021/08/05 03:33:53;;;;;;;7.63;6.87;;;14.50;99.90;;;;;;5099191;28;20238;-45
2021/08/05 03:36:19;;;;;;;8.50;7.60;;;14.50;99.90;;;;;;5099893;28;20196;-45
2021/08/05 03:38:44;;;;;;;9.43;7.93;;;14.50;99.90;;;;;;5099801;28;20623;-45
2021/08/05 03:41:10;;;;;;;9.60;7.70;;;14.50;99.90;;;;;;5112072;28;20194;-45
2021/08/05 03:43:36;;;;;;;7.70;6.93;;;14.50;99.90;;;;;;5106737;28;20277;-45
2021/08/05 03:46:02;;;;;;;7.50;6.80;;;14.50;99.90;;;;;;5098849;28;20192;-45
2021/08/05 03:48:27;;;;;;;8.23;7.20;;;14.50;99.90;;;;;;5113269;28;20695;-45
2021/08/05 03:50:53;;;;;;;8.60;7.53;;;14.40;99.90;;;;;;5099065;28;20435;-45
2021/08/05 03:53:19;;;;;;;9.67;8.50;;;14.40;99.90;;;;;;5098497;28;20474;-45
2021/08/05 03:55:45;;;;;;;10.40;7.70;;;14.40;99.90;;;;;;5099167;28;20234;-45
2021/08/05 03:58:11;;;;;;;8.40;7.70;;;14.40;99.90;;;;;;5100242;28;20448;-45
2021/08/05 04:00:37;;;;;;;8.53;7.73;;;14.40;99.90;;;;;;5101028;28;20184;-45
2021/08/05 04:03:03;;;;;;;9.77;7.20;;;14.40;99.90;;;;;;5107323;28;20520;-46
2021/08/05 04:05:29;;;;;;;8.17;7.47;;;14.40;99.90;;;;;;5111861;28;20516;-46
2021/08/05 04:07:55;;;;;;;7.60;6.73;;;14.40;99.90;;;;;;5089357;28;20559;-46
2021/08/05 04:10:21;;;;;;;9.13;7.40;;;14.40;99.90;;;;;;5101743;28;20546;-46
2021/08/05 04:12:47;;;;;;;8.30;7.50;;;14.40;99.90;;;;;;5119111;28;20266;-46
2021/08/05 04:15:12;;;;;;;6.90;6.30;;;14.40;99.90;;;;;;5118977;28;20807;-46
2021/08/05 04:17:39;;;;;;;9.43;8.43;;;14.50;99.90;;;;;;5119081;28;20772;-46
2021/08/05 04:20:06;;;;;;;7.20;6.53;;;14.50;99.90;;;;;;5103093;28;20212;-46
2021/08/05 04:22:32;;;;;;;8.23;7.43;;;14.50;99.90;;;;;;5090178;28;20437;-45
2021/08/05 04:24:58;;;;;;;8.30;7.50;;;14.50;99.90;;;;;;5101489;28;20896;-45
2021/08/05 04:27:25;;;;;;;7.93;6.80;;;14.50;99.90;;;;;;5102044;28;20427;-45
2021/08/05 04:29:50;;;;;;;8.40;6.20;;;14.60;99.90;;;;;;5100653;28;20195;-45
2021/08/05 04:32:16;;;;;;;6.60;5.70;;;14.60;99.90;;;;;;5100728;28;20427;-45
2021/08/05 04:34:42;;;;;;;7.00;6.30;;;14.60;99.90;;;;;;5090840;28;20175;-45
2021/08/05 04:37:08;;;;;;;6.47;5.90;;;14.50;99.90;;;;;;5103325;28;20430;-45
2021/08/05 04:39:33;;;;;;;8.93;7.17;;;14.60;99.90;;;;;;5099371;28;20664;-45
2021/08/05 04:41:59;;;;;;;7.83;6.23;;;14.60;99.90;;;;;;5100046;28;20195;-45
2021/08/05 04:44:25;;;;;;;6.50;5.80;;;14.60;99.90;;;;;;5100861;28;20238;-45
2021/08/05 04:46:51;;;;;;;6.87;6.17;;;14.60;99.90;;;;;;5098788;28;20438;-45
2021/08/05 04:49:16;;;;;;;6.23;5.60;;;14.60;99.90;;;;;;5096102;28;20552;-45
2021/08/05 04:51:42;;;;;;;6.40;5.80;;;14.70;99.90;;;;;;5099700;28;20295;-45
2021/08/05 04:54:08;;;;;;;7.77;6.97;;;14.70;99.90;;;;;;5098166;28;20574;-45
2021/08/05 04:56:34;;;;;;;6.97;6.27;;;14.70;99.90;;;;;;5102394;28;20453;-45
2021/08/05 04:59:00;;;;;;;6.57;5.97;;;14.70;99.90;;;;;;5101973;28;20580;-45
2021/08/05 05:01:26;;;;;;;9.30;6.77;;;14.80;99.90;;;;;;5100506;28;20481;-45
2021/08/05 05:03:52;;;;;;;7.03;6.33;;;14.80;99.90;;;;;;5104347;28;20183;-45
2021/08/05 05:06:18;;;;;;;11.20;5.67;;;14.80;99.90;;;;;;5106596;28;20438;-45
2021/08/05 05:08:43;;;;;;;6.97;6.37;;;14.80;99.90;;;;;;5105803;28;20195;-45
2021/08/05 05:11:09;;;;;;;7.80;5.70;;;14.90;99.90;;;;;;5101182;28;20188;-45
2021/08/05 05:13:35;;;;;;;8.40;6.83;;;14.90;99.90;;;;;;5115783;28;20184;-45
2021/08/05 05:16:01;;;;;;;5.43;4.93;;;15.00;99.90;;;;;;5107406;28;20908;-46
2021/08/05 05:18:27;;;;;;;6.43;5.10;;;15.10;99.90;;;;;;5107454;28;20234;-45
2021/08/05 05:20:53;;;;;;;6.33;5.53;;;15.10;99.90;;;;;;5111744;28;20851;-45
2021/08/05 05:23:20;;;;;;;8.40;5.67;;;15.20;99.90;;;;;;5112050;28;20223;-45
2021/08/05 05:25:47;;;;;;;6.10;5.50;;;15.20;99.90;;;;;;5094205;28;20480;-45
2021/08/05 05:28:13;;;;;;;6.50;5.90;;;15.30;99.90;;;;;;5097207;28;20467;-45
2021/08/05 05:30:40;;;;;;;5.43;4.93;;;15.40;99.90;;;;;;5080961;28;20868;-45
2021/08/05 05:33:06;;;;;;;5.87;5.37;;;15.40;99.90;;;;;;5093930;28;20429;-45
2021/08/05 05:35:32;;;;;;;6.27;5.17;;;15.50;99.90;;;;;;5082158;28;20442;-45
2021/08/05 05:37:59;;;;;;;5.10;4.70;;;15.50;99.90;;;;;;5086909;28;20476;-45
2021/08/05 05:40:25;;;;;;;5.33;4.83;;;15.50;99.90;;;;;;5086880;28;20482;-45
2021/08/05 05:42:53;;;;;;;9.23;5.90;;;15.50;99.90;;;;;;5079676;28;21041;-45
2021/08/05 05:45:19;;;;;;;6.47;5.10;;;15.50;99.90;;;;;;5078563;28;20904;-45
2021/08/05 05:47:46;;;;;;;6.00;5.40;;;15.60;99.90;;;;;;5078074;28;20434;-45
2021/08/05 05:50:13;;;;;;;6.40;5.07;;;15.60;99.90;;;;;;5083218;28;20438;-45
2021/08/05 05:52:40;;;;;;;6.53;4.97;;;15.70;99.90;;;;;;5088063;28;20441;-44
2021/08/05 05:55:06;;;;;;;7.13;5.43;;;15.80;99.90;;;;;;5081119;28;20576;-45
2021/08/05 05:57:32;;;;;;;5.90;5.40;;;15.90;99.90;;;;;;5087795;28;20438;-45
2021/08/05 05:59:58;;;;;;;4.93;4.47;;;16.00;99.90;;;;;;5087120;28;20470;-45
2021/08/05 06:02:24;;;;;;;6.80;6.20;;;16.10;99.90;;;;;;5098748;28;20431;-45
2021/08/05 06:04:49;;;;;;;7.47;6.10;;;16.40;99.90;;;;;;5089837;28;20441;-45
2021/08/05 06:07:15;;;;;;;5.67;5.07;;;16.50;99.90;;;;;;5079422;28;20193;-45
2021/08/05 06:09:41;;;;;;;5.37;4.87;;;16.70;99.90;;;;;;5083557;28;20185;-46
2021/08/05 06:12:07;;;;;;;4.70;4.20;;;16.90;99.90;;;;;;5080288;28;20188;-45
2021/08/05 06:14:32;;;;;;;8.90;4.70;;;17.10;99.90;;;;;;5086712;28;21037;-46
2021/08/05 06:16:59;;;;;;;8.97;4.77;;;17.20;99.90;;;;;;5091443;28;20270;-45
2021/08/05 06:19:25;;;;;;;7.13;5.07;;;17.40;99.90;;;;;;5086267;28;20209;-45
2021/08/05 06:21:50;;;;;;;4.67;4.10;;;17.40;99.90;;;;;;5083406;28;20445;-46
2021/08/05 06:24:17;;;;;;;6.60;4.63;;;17.50;99.90;;;;;;5079846;28;20470;-45
2021/08/05 06:26:43;;;;;;;5.40;4.60;;;17.60;99.90;;;;;;5085420;28;20442;-46
2021/08/05 06:29:10;;;;;;;4.77;4.33;;;17.70;99.90;;;;;;5084476;28;20434;-46
2021/08/05 06:31:36;;;;;;;5.57;5.00;;;17.70;99.90;;;;;;5084388;28;20184;-46
2021/08/05 06:34:03;;;;;;;5.63;4.93;;;17.70;99.90;;;;;;5082916;28;20426;-46
2021/08/05 06:36:30;;;;;;;10.53;4.87;;;17.80;99.90;;;;;;5087823;28;20456;-45
2021/08/05 06:38:57;;;;;;;6.63;5.43;;;18.00;99.90;;;;;;5084374;28;20468;-46
2021/08/05 06:41:22;;;;;;;4.27;3.87;;;18.00;99.90;;;;;;5081170;28;20439;-45
2021/08/05 06:43:48;;;;;;;6.97;4.23;;;18.40;99.90;;;;;;5080043;28;20678;-46
2021/08/05 06:46:14;;;;;;;6.00;4.20;;;18.80;99.80;;;;;;5090137;28;20196;-46
2021/08/05 06:48:40;;;;;;;6.70;3.90;;;19.20;99.20;;;;;;5085801;28;20557;-46
2021/08/05 06:51:07;;;;;;;4.90;4.00;;;19.60;97.90;;;;;;5079116;28;20530;-46
2021/08/05 06:53:32;;;;;;;4.40;3.90;;;19.80;97.00;;;;;;5079002;28;20217;-45
2021/08/05 06:55:59;;;;;;;4.10;3.70;;;20.10;95.40;;;;;;5078351;28;20473;-45
2021/08/05 06:58:24;;;;;;;8.27;4.40;;;19.70;96.40;;;;;;5088438;28;20211;-45
2021/08/05 07:00:50;;;;;;;4.30;3.90;;;19.50;97.10;;;;;;5089291;28;20895;-46
2021/08/05 07:03:16;;;;;;;4.90;3.57;;;19.60;97.20;;;;;;5094477;28;20184;-46
2021/08/05 07:05:44;;;;;;;5.87;4.53;;;19.60;97.70;;;;;;5097566;28;20445;-46
2021/08/05 07:08:09;;;;;;;5.40;4.43;;;19.80;97.30;;;;;;5098252;28;20517;-45
2021/08/05 07:10:35;;;;;;;5.33;4.17;;;19.60;98.00;;;;;;5098132;28;20486;-45
2021/08/05 07:13:01;;;;;;;5.07;4.60;;;19.70;97.80;;;;;;5097825;28;20177;-46
2021/08/05 07:15:27;;;;;;;4.20;3.80;;;19.90;97.30;;;;;;5097374;28;20222;-45
2021/08/05 07:17:52;;;;;;;4.63;3.83;;;19.80;97.50;;;;;;5097030;28;20199;-45
2021/08/05 07:20:18;;;;;;;4.50;4.10;;;20.20;96.70;;;;;;5098724;28;20285;-45
2021/08/05 07:22:45;;;;;;;4.87;4.37;;;19.70;96.40;;;;;;5098533;28;20172;-45
2021/08/05 07:25:13;;;;;;;5.93;4.00;;;19.70;97.60;;;;;;5119424;28;20546;-45
2021/08/05 07:27:41;;;;;;;5.13;4.00;;;19.80;98.10;;;;;;5120327;28;20678;-45
2021/08/05 07:30:08;;;;;;;5.20;4.70;;;20.10;97.70;;;;;;5119613;28;20420;-45
2021/08/05 07:32:35;;;;;;;25.40;5.30;;;19.50;98.20;;;;;;5118240;28;20500;-45
2021/08/05 07:35:00;;;;;;;4.40;4.00;;;19.60;98.30;;;;;;5118270;28;20460;-46
2021/08/05 07:37:26;;;;;;;5.50;4.10;;;20.00;98.10;;;;;;5118338;28;20437;-45
2021/08/05 07:39:52;;;;;;;5.23;3.80;;;19.70;97.70;;;;;;5118019;28;20204;-45
2021/08/05 07:42:19;;;;;;;4.60;4.10;;;19.70;98.00;;;;;;5118026;28;20457;-45
2021/08/05 07:44:45;;;;;;;5.67;4.40;;;19.80;97.60;;;;;;5117771;28;20178;-45
2021/08/05 07:47:11;;;;;;;3.80;3.50;;;19.90;97.30;;;;;;5099505;28;20433;-45
2021/08/05 07:49:37;;;;;;;5.17;4.67;;;19.80;97.60;;;;;;5100511;28;20506;-45
2021/08/05 07:52:04;;;;;;;4.20;3.80;;;19.60;97.00;;;;;;5118165;28;20455;-45
2021/08/05 07:54:30;;;;;;;4.50;4.10;;;19.90;97.20;;;;;;5117554;28;20830;-45
2021/08/05 07:56:56;;;;;;;4.20;3.70;;;20.20;96.50;;;;;;5117669;28;20430;-44
2021/08/05 07:59:21;;;;;;;4.83;3.23;;;20.10;95.70;;;;;;5117407;28;21033;-44
2021/08/05 08:01:47;;;;;;;5.60;4.70;;;19.70;96.60;;;;;;5117227;28;20232;-44
2021/08/05 08:04:13;;;;;;;4.53;4.13;;;19.70;96.10;;;;;;5117195;28;20260;-45
2021/08/05 08:06:38;;;;;;;5.03;3.43;;;19.60;96.30;;;;;;5117939;28;20441;-45
2021/08/05 08:09:04;;;;;;;4.00;3.40;;;19.70;96.80;;;;;;5117867;28;20179;-45
2021/08/05 08:11:30;;;;;;;6.33;4.50;;;20.10;96.90;;;;;;5118679;28;20191;-45
2021/08/05 08:13:56;;;;;;;3.90;3.50;;;20.00;96.00;;;;;;5118273;28;20180;-45
2021/08/05 08:16:23;;;;;;;4.77;3.87;;;20.10;95.60;;;;;;5117169;28;20483;-45
2021/08/05 08:18:49;;;;;;;5.53;3.60;;;20.10;95.70;;;;;;5118740;28;20468;-44
2021/08/05 08:21:16;;;;;;;3.63;3.07;;;20.20;95.20;;;;;;5117981;28;20517;-45
2021/08/05 08:23:43;;;;;;;7.37;3.70;;;20.10;96.00;;;;;;5099136;28;20476;-45
2021/08/05 08:26:09;;;;;;;4.73;3.80;;;20.40;95.40;;;;;;5116917;28;20731;-45
2021/08/05 08:28:34;;;;;;;4.10;3.70;;;20.60;94.70;;;;;;5116487;28;20430;-45
2021/08/05 08:31:01;;;;;;;3.13;2.80;;;20.90;94.80;;;;;;5116467;28;20441;-45
2021/08/05 08:33:26;;;;;;;5.77;4.40;;;21.10;94.60;;;;;;5116291;28;20194;-45
2021/08/05 08:35:52;;;;;;;5.03;4.10;;;20.90;94.60;;;;;;5116054;28;20847;-45
2021/08/05 08:38:22;;;;;;;4.57;4.00;;;20.90;94.50;;;;;;5115920;28;20175;-45
2021/08/05 08:40:49;;;;;;;3.90;3.03;;;21.40;94.20;;;;;;5114861;28;20282;-44
2021/08/05 08:43:14;;;;;;;3.70;3.00;;;21.90;93.60;;;;;;5116327;28;20509;-45
2021/08/05 08:45:40;;;;;;;4.20;3.73;;;22.00;93.10;;;;;;5115963;28;20890;-45
2021/08/05 08:48:06;;;;;;;3.90;3.47;;;22.80;92.30;;;;;;5098296;28;20222;-45
2021/08/05 08:50:33;;;;;;;4.23;3.30;;;23.40;90.70;;;;;;5115452;28;20469;-45
2021/08/05 08:53:05;;;;;;;3.20;2.77;;;23.90;89.10;;;;;;5097672;28;20183;-45
2021/08/05 08:55:33;;;;;;;3.80;3.40;;;24.50;86.10;;;;;;5114849;28;20429;-45
2021/08/05 08:58:01;;;;;;;4.27;3.00;;;24.60;86.40;;;;;;5115384;28;20524;-45
2021/08/05 09:00:27;;;;;;;3.20;2.90;;;24.90;86.10;;;;;;5115565;28;20472;-45
2021/08/05 09:02:54;;;;;;;5.23;3.10;;;25.30;82.50;;;;;;5115742;28;20541;-45
2021/08/05 09:05:20;;;;;;;2.90;2.60;;;25.40;80.80;;;;;;5116399;28;20523;-45
2021/08/05 09:07:46;;;;;;;4.23;2.73;;;25.50;80.50;;;;;;5116703;28;20508;-44
2021/08/05 09:10:12;;;;;;;3.00;2.27;;;25.10;80.10;;;;;;5117055;28;20183;-45
2021/08/05 09:12:42;;;;;;;3.23;2.70;;;24.20;79.00;;;;;;5116869;28;20456;-45
2021/08/05 09:15:08;;;;;;;2.87;2.37;;;23.10;80.40;;;;;;5099603;28;20417;-45
2021/08/05 09:17:40;;;;;;;2.50;2.30;;;23.50;81.50;;;;;;5116147;28;20493;-45
2021/08/05 09:20:12;;;;;;;3.57;2.33;;;24.10;81.00;;;;;;5115035;28;20601;-45
2021/08/05 09:22:45;;;;;;;3.13;2.83;;;24.30;80.80;;;;;;5115791;28;20421;-45
2021/08/05 09:25:28;;;;;;;2.27;2.03;;;25.00;79.30;;;;;;5114808;28;20624;-45
2021/08/05 09:28:00;;;;;;;3.40;2.57;;;26.00;76.40;;;;;;5114899;28;20832;-45
2021/08/05 09:30:39;;;;;;;3.47;2.50;;;26.50;74.20;;;;;;5114942;28;20444;-45
2021/08/05 09:33:16;;;;;;;2.87;2.50;;;26.90;74.00;;;;;;5115727;28;20698;-45
2021/08/05 09:35:44;;;;;;;2.67;2.47;;;27.10;71.20;;;;;;5115844;28;20429;-45
2021/08/05 09:38:20;;;;;;;3.07;2.60;;;27.50;70.80;;;;;;5117296;28;20486;-45
2021/08/05 09:40:47;;;;;;;2.40;2.20;;;27.40;69.10;;;;;;5117000;28;20431;-45
2021/08/05 09:43:22;;;;;;;2.90;2.60;;;28.50;65.30;;;;;;5116668;28;20649;-45
2021/08/05 09:45:48;;;;;;;3.67;2.57;;;28.50;64.40;;;;;;5116822;28;20493;-45
2021/08/05 09:48:37;;;;;;;2.83;2.53;;;29.10;62.60;;;;;;5117459;28;20406;-45
2021/08/05 09:51:08;;;;;;;2.47;2.13;;;29.00;62.00;;;;;;5116960;28;20187;-44
2021/08/05 09:53:34;;;;;;;3.23;2.93;;;28.10;65.00;;;;;;5116736;28;20680;-45
2021/08/05 09:56:11;;;;;;;3.50;2.70;;;27.30;65.30;;;;;;5116322;28;20455;-45
2021/08/05 09:58:38;;;;;;;2.87;2.57;;;27.70;67.20;;;;;;5116547;28;20268;-46
2021/08/05 10:01:07;;;;;;;4.80;2.70;;;28.00;64.60;;;;;;5117396;28;20425;-46
2021/08/05 10:03:34;;;;;;;1.90;1.70;;;28.40;62.50;;;;;;5097954;28;20445;-46
2021/08/05 10:06:03;;;;;;;3.43;2.10;;;27.50;61.50;;;;;;5114247;28;20502;-46
2021/08/05 10:08:36;;;;;;;3.43;2.83;;;28.50;61.00;;;;;;5115060;28;20574;-46
2021/08/05 10:11:02;;;;;;;2.47;2.27;;;29.60;60.40;;;;;;5115721;28;20497;-46
2021/08/05 10:13:34;;;;;;;2.60;2.23;;;29.70;58.90;;;;;;5114197;28;20425;-46
2021/08/05 10:16:00;;;;;;;3.53;3.00;;;27.70;59.50;;;;;;5114936;28;20833;-46
2021/08/05 10:18:32;;;;;;;4.70;2.80;;;27.70;62.40;;;;;;5097367;28;20811;-46
2021/08/05 10:21:00;;;;;;;2.77;2.57;;;27.70;62.70;;;;;;5116989;28;20502;-46
2021/08/05 10:23:28;;;;;;;2.40;2.20;;;27.70;64.20;;;;;;5077895;28;20909;-46
2021/08/05 10:25:59;;;;;;;2.80;2.50;;;28.00;62.80;;;;;;5095287;28;20419;-46
2021/08/05 10:28:25;;;;;;;3.07;2.77;;;27.40;62.40;;;;;;5094905;28;20421;-46
2021/08/05 10:30:52;;;;;;;3.00;2.70;;;26.90;61.60;;;;;;5093339;28;20422;-46
2021/08/05 10:33:19;;;;;;;2.50;2.30;;;27.70;63.80;;;;;;5091101;28;20386;-46
2021/08/05 10:35:47;;;;;;;2.20;1.90;;;28.20;62.00;;;;;;5092940;28;20441;-46
2021/08/05 10:38:23;;;;;;;3.50;2.40;;;29.40;59.70;;;;;;5092173;28;20442;-46
2021/08/05 10:40:50;;;;;;;3.30;2.17;;;29.20;57.10;;;;;;5095805;28;20474;-46
2021/08/05 10:43:17;;;;;;;2.10;1.90;;;29.30;57.50;;;;;;5097250;28;20863;-46
2021/08/05 10:45:43;;;;;;;2.37;2.10;;;29.40;57.30;;;;;;5098652;28;20434;-46
2021/08/05 10:48:10;;;;;;;2.87;2.00;;;29.90;57.20;;;;;;5097550;28;20373;-46
2021/08/05 10:50:41;;;;;;;3.17;2.03;;;29.40;55.80;;;;;;5099346;28;20418;-46
2021/08/05 10:53:12;;;;;;;2.40;2.20;;;30.10;56.20;;;;;;5099738;28;20381;-46
2021/08/05 10:55:39;;;;;;;4.53;1.93;;;29.40;55.30;;;;;;5099181;28;20430;-46
2021/08/05 10:58:05;;;;;;;3.03;2.10;;;28.50;55.70;;;;;;5099865;28;20697;-46
2021/08/05 11:00:51;;;;;;;1.93;1.77;;;28.30;56.50;;;;;;5098304;28;20468;-46
2021/08/05 11:03:31;;;;;;;2.30;2.10;;;28.80;55.10;;;;;;5098949;28;20191;-46
2021/08/05 11:05:58;;;;;;;2.43;2.23;;;28.50;55.50;;;;;;5099218;28;20798;-46
2021/08/05 11:08:25;;;;;;;2.20;1.80;;;29.10;55.70;;;;;;5098963;28;20414;-46
2021/08/05 11:11:19;;;;;;;2.30;2.10;;;29.80;54.80;;;;;;5097330;28;20425;-46
2021/08/05 11:13:46;;;;;;;2.80;2.50;;;30.20;53.90;;;;;;5098035;28;20421;-46
2021/08/05 11:16:12;;;;;;;4.10;2.00;;;29.60;54.40;;;;;;5097296;28;20530;-46
2021/08/05 11:18:37;;;;;;;4.20;1.73;;;31.10;52.30;;;;;;5098679;28;20515;-46
2021/08/05 11:21:03;;;;;;;2.60;2.40;;;30.20;52.20;;;;;;5098258;28;20401;-46
2021/08/05 11:23:30;;;;;;;2.13;1.93;;;30.20;52.20;;;;;;5105225;28;20500;-46
2021/08/05 11:25:56;;;;;;;2.13;1.93;;;29.80;53.10;;;;;;5101978;28;20180;-46
2021/08/05 11:28:21;;;;;;;4.33;1.90;;;29.60;52.90;;;;;;5120127;28;20500;-46
2021/08/05 11:30:50;;;;;;;2.63;2.17;;;28.40;54.20;;;;;;5119832;28;20171;-46
2021/08/05 11:33:37;;;;;;;1.83;1.50;;;27.20;56.40;;;;;;5119291;28;20255;-46
2021/08/05 11:36:33;;;;;;;2.40;1.90;;;26.30;57.00;;;;;;5119790;28;20440;-46
2021/08/05 11:39:00;;;;;;;2.40;1.77;;;26.10;57.50;;;;;;5118911;28;20536;-46
2021/08/05 11:41:45;;;;;;;2.00;1.80;;;25.60;58.20;;;;;;5118486;28;20438;-47
2021/08/05 11:44:35;;;;;;;2.83;2.50;;;25.30;58.70;;;;;;5118360;28;20405;-46
2021/08/05 11:47:13;;;;;;;2.30;2.00;;;24.90;60.10;;;;;;5118056;28;20418;-46
2021/08/05 11:49:47;;;;;;;2.50;1.80;;;24.90;62.20;;;;;;5118128;28;20497;-46
2021/08/05 11:52:39;;;;;;;2.27;2.00;;;27.00;59.50;;;;;;5117581;28;20907;-46
2021/08/05 11:55:20;;;;;;;2.23;2.03;;;30.20;59.00;;;;;;5117683;28;20432;-46
2021/08/05 11:57:50;;;;;;;1.97;1.77;;;32.60;52.20;;;;;;5118164;28;20719;-46
2021/08/05 12:00:21;;;;;;;2.03;1.80;;;33.20;50.20;;;;;;5118729;28;20766;-47
2021/08/05 12:02:50;;;;;;;2.40;1.90;;;34.10;48.20;;;;;;5119530;28;20632;-46
2021/08/05 12:05:18;;;;;;;2.03;1.70;;;34.00;47.20;;;;;;5118632;28;20668;-46
2021/08/05 12:07:48;;;;;;;2.13;1.93;;;33.90;48.00;;;;;;5118760;28;20675;-46
2021/08/05 12:10:31;;;;;;;2.40;2.20;;;33.70;48.20;;;;;;5118693;28;20392;-46
2021/08/05 12:13:06;;;;;;;2.43;2.07;;;33.10;47.00;;;;;;5118999;28;20394;-46
2021/08/05 12:15:37;;;;;;;2.10;1.83;;;31.00;48.60;;;;;;5117591;28;20702;-46
2021/08/05 12:18:08;;;;;;;2.23;1.97;;;30.10;49.50;;;;;;5099676;28;20405;-46
2021/08/05 12:20:52;;;;;;;1.80;1.70;;;28.80;50.20;;;;;;5118486;28;20797;-46
2021/08/05 12:23:24;;;;;;;1.90;1.70;;;28.00;51.80;;;;;;5100701;28;20461;-46
2021/08/05 12:28:23;;;;;;;2.53;1.93;;;26.90;59.90;;;;;;5118719;28;20405;-46
2021/08/05 12:30:52;;;;;;;2.13;1.93;;;26.50;62.90;;;;;;5097545;28;20532;-47
2021/08/05 12:33:25;;;;;;;2.53;1.97;;;26.10;66.30;;;;;;5108141;28;20628;-46
2021/08/05 12:36:03;;;;;;;2.47;2.00;;;25.70;69.30;;;;;;5103841;28;20482;-46
2021/08/05 12:38:29;;;;;;;2.57;2.07;;;25.30;72.10;;;;;;5116170;28;20500;-47
2021/08/05 12:40:57;;;;;;;2.57;2.10;;;24.90;74.20;;;;;;5115391;28;20452;-47
2021/08/05 12:43:27;;;;;;;2.23;1.70;;;24.40;78.40;;;;;;5116296;28;20420;-46
2021/08/05 12:45:53;;;;;;;3.40;2.10;;;23.90;82.80;;;;;;5098861;28;20512;-46
2021/08/05 12:48:21;;;;;;;5.63;2.27;;;23.30;88.30;;;;;;5118038;28;20432;-46
2021/08/05 12:50:47;;;;;;;4.63;2.57;;;22.70;91.80;;;;;;5098697;28;20440;-46
2021/08/05 12:53:46;;;;;;;4.90;2.30;;;22.20;93.40;;;;;;5116713;28;20413;-46